EDDB Airport Information

Runway Information
Runway 07L Length 11811 ft width 148 ft
Elevation 144 ft Threshold ft Heading 69
Runway 25R Length 11811 ft Width 148 ft
Elevation 154 ft Threshold ft Heading 249
Runway 07R Length 13123 ft width 197 ft
Elevation 152 ft Threshold ft Heading 69
Runway 25L Length 13123 ft Width 197 ft
Elevation 149 ft Threshold ft Heading 249
Airport Frequencies
Type AFIS Name BERLIN INF Frequency 132.65 MHZ
Type APP Name BERLIN ARR Frequency 119.625 MHZ
Type ATIS Name ATIS Frequency 124.95 MHZ
Type DEP Name BERLIN DEP Frequency 120.625 MHZ
Type DIR Name BERLIN DIR Frequency 136.1 MHZ
Type GND Name GND Frequency 121.6 MHZ
Type INFO Name INFO Frequency 122.7 MHZ
Type TWR Name TWR Frequency 120.025 MHZ
Airport Navaids
Airport Weather Information & NOTAM
ADDS - METARS form results

(1118 UTC 05 February 2023)
Data provider http://aviationweather.gov/metar/data/
 
METAR text: EDDB 051050Z AUTO 14006KT 120V180 CAVOK M00/M05 Q1038 NOSIG
Conditions at: EDDB (BERLIN/BRANDERNB, DE) observed 1050 UTC 05 February 2023
Temperature: 0.0°C (32°F)
Dewpoint: -5.0°C (23°F) [RH = 69%]
Pressure (altimeter): 30.65 inches Hg (1038.0 mb)
Winds: from the SE (140 degrees) at 7 MPH (6 knots; 3.1 m/s)
Visibility: 6 or more miles (10+ km)
Ceiling: ceiling and visibility are OK
Clouds: unknown
Weather: no significant weather observed at this time

METAR text: EDDB 051020Z AUTO 14004KT CAVOK M01/M04 Q1038 NOSIG
Conditions at: EDDB (BERLIN/BRANDERNB, DE) observed 1020 UTC 05 February 2023
Temperature: -1.0°C (30°F)
Dewpoint: -4.0°C (25°F) [RH = 80%]
Pressure (altimeter): 30.65 inches Hg (1038.0 mb)
Winds: from the SE (140 degrees) at 5 MPH (4 knots; 2.1 m/s)
Visibility: 6 or more miles (10+ km)
Ceiling: ceiling and visibility are OK
Clouds: unknown
Weather: no significant weather observed at this time

Forecast for: EDDB (BERLIN/BRANDERNB, DE)
Text: TAF EDDB 050500Z 0506/0606 VRB03KT CAVOK
Forecast period: 0600 UTC 05 February 2023 to 0600 UTC 06 February 2023
Forecast type: FROM: standard forecast or significant change
Winds: variable direction winds at 3 MPH (3 knots; 1.5 m/s)
Visibility: 6 or more miles (10+ km)
Ceiling: unknown
Clouds: missing
Weather: NSW  (no significant weather)
Text: BECMG 0506/0509 16005KT
Forecast period: 0600 UTC 05 February 2023 to 0600 UTC 06 February 2023
Forecast type: BECOMING: Conditions expected to become as follows by 0900 UTC 05 February 2023
Winds: from the SSE (160 degrees) at 6 MPH (5 knots; 2.6 m/s)
Visibility: 6 or more miles (10+ km)
Ceiling: unknown
Clouds: missing
Weather: NSW  (no significant weather)